Waynesville, OH

11:17 PM EST on January 31, 2015 (GMT -0500)
Lytle | Change Station
CLOSE
Current Station
Personal Weather Station
Location: Waynesville, OH
Elevation: 990 ft
Nearby Weather Stations
Active Advisory: Winter Weather Advisory

Elev 990 ft 39.56 °N, 84.12 °W | Updated 1 second ago

Overcast
Overcast
29.5 °F
Feels Like 29.5 °F
N
1.6
Wind Variable Wind from South
Gusts 5.4 mph

Today
High -- | Low -- °F
--% Chance of Precip.
Yesterday
High -- | Low -- °F
Precip. -- in
7:45 AM 5:55 PM
Waxing Gibbous, 93% visible
Pressure 30.24 in
Visibility 10.0 miles
Clouds Few 1900 ft
Scattered Clouds 5500 ft
Overcast 7500 ft
Dew Point 23.2 °F
Humidity 77%
Rainfall 0.00 in
Snow Depth Not available.
UV 0 out of 12
Pollen .10 out of 12
Air Quality Not available.
Flu Activity Not available.
METAR KMGY 010353Z AUTO 23009KT 10SM FEW019 SCT055 OVC075 02/M03 A3021 RMK AO2 SLP240 T00171033

More Conditions Fewer Conditions

Pressure 30.24 in
Visibility 10.0 miles
Clouds Few 1900 ft
Scattered Clouds 5500 ft
Overcast 7500 ft
Dew Point 23.2 °F
Humidity 77%
Rainfall 0.00 in
Snow Depth Not available.
UV 0 out of 12
Pollen .10 out of 12
Air Quality Not available.
Flu Activity Not available.
METAR KMGY 010353Z AUTO 23009KT 10SM FEW019 SCT055 OVC075 02/M03 A3021 RMK AO2 SLP240 T00171033

More Conditions Fewer Conditions

10-Day Weather Forecast

Almanac

Astronomy

Jan. 31, 2015 Rise Set
Actual Time
Civil Twilight
Nautical Twilight
Astronomical Twilight
Moon
Length of Visible Light
Length of Day
Tomorrow will be .
, % of the Moon is Illuminated

Today's Extremes

State Highs State Lows

Community

WunderPhotos

Upload Photos

1,792,301 photos uploaded!

WunderBlogs® & News

Nearby

Air Quality

  Air Quality AQ Index Pollutant
Not available.

Snow Depth

Station Depth Elevation

Earthquake Activity

City Distance Mag. Time & Date
Minimum magnitude displayed is 2.5.

Coastal Water Temperatures

Place Temperature

Nearby Weather Stations